Here is the Quick Look data you requested

The Data originates at the National Weather Service, and is made available here by the UAlbany Department of Atmospheric and Environmental Sciences

Surface Observations

KEZF 151955Z AUTO 19006KT 10SM CLR 36/19 A2986 RMK AO2 T03610186=
KEZF 152015Z AUTO 21008KT 10SM CLR 36/18 A2986 RMK AO2 T03610184=
KEZF 152035Z AUTO 21008KT 10SM CLR 36/19 A2985 RMK AO2 T03600187=
KEZF 152055Z AUTO 20008KT 10SM CLR 36/19 A2985 RMK AO2 T03630188=
KEZF 152115Z AUTO 20007KT 10SM CLR 36/19 A2984 RMK AO2 T03600187=
KEZF 152135Z AUTO 22008KT 10SM CLR 36/19 A2984 RMK AO2 T03620190=
KEZF 152155Z AUTO 24004KT 10SM CLR 35/18 A2985 RMK AO2 T03480182=
KEZF 152215Z AUTO 30015G24KT 10SM BKN090 BKN120 33/18 A2988 RMK AO2 T03250180=
KEZF 152235Z AUTO 19006G11KT 7SM RA SCT049 BKN090 OVC110 26/22 A2985 RMK AO2
 P0001 T02560220=
KEZF 152255Z AUTO 00000KT 10SM SCT047 SCT070 BKN110 26/25 A2984 RMK AO2 P0001
 T02640247=
KEZF 152315Z AUTO 00000KT 10SM CLR 27/26 A2984 RMK AO2 T02740255=
KEZF 152335Z AUTO 00000KT 10SM CLR 28/26 A2983 RMK AO2 T02750262=
KEZF 152355Z AUTO 00000KT 10SM CLR 28/27 A2983 RMK AO2 60001 T02750267 10363
 20254=
KEZF 160015Z AUTO 00000KT 10SM CLR 27/26 A2983 RMK AO2 T02720258=
KEZF 160035Z AUTO 00000KT 10SM CLR 27/24 A2984 RMK AO2 T02720238=
KEZF 160055Z AUTO 00000KT 10SM CLR 27/24 A2985 RMK AO2 T02700238=
KEZF 160115Z AUTO 00000KT 10SM CLR 27/24 A2985 RMK AO2 T02700239=
KEZF 160135Z AUTO 00000KT 10SM CLR 27/23 A2986 RMK AO2 T02710229=
KEZF 160155Z AUTO 20005KT 10SM CLR 28/22 A2986 RMK AO2 T02760224=
KEZF 160215Z AUTO 00000KT 10SM CLR 28/22 A2986 RMK AO2 T02810219=
KEZF 160235Z AUTO 00000KT 10SM CLR 28/22 A2986 RMK AO2 T02760222=
KEZF 160255Z AUTO 21005KT 10SM CLR 28/22 A2985 RMK AO2 T02780218=
KEZF 160315Z AUTO 20006KT 10SM CLR 27/23 A2985 RMK AO2 T02690225=
KEZF 160335Z AUTO 00000KT 10SM CLR 27/22 A2984 RMK AO2 T02720218=
KEZF 160355Z AUTO 00000KT 10SM CLR 27/22 A2984 RMK AO2 T02710218=
KEZF 160415Z AUTO 21006KT 10SM CLR 27/22 A2983 RMK AO2 T02710216=
KEZF 160435Z AUTO 21006KT 10SM CLR 27/22 A2983 RMK AO2 T02740215=
KEZF 160455Z AUTO 21007KT 10SM CLR 27/21 A2983 RMK AO2 T02720214=
KEZF 160515Z AUTO 22007KT 10SM CLR 27/22 A2982 RMK AO2 T02720215=
KEZF 160535Z AUTO 22007KT 10SM CLR 27/22 A2983 RMK AO2 T02710215=
KEZF 160555Z AUTO 22007KT 180V240 10SM CLR 27/22 A2982 RMK AO2 T02700215 10282
 20265 403630241=
KEZF 160615Z AUTO 23005KT 10SM CLR 27/22 A2982 RMK AO2 T02700216=
KEZF 160635Z AUTO 22005KT 10SM CLR 27/22 A2983 RMK AO2 T02670217=
KEZF 160655Z AUTO 22005KT 10SM CLR 27/22 A2983 RMK AO2 T02660218=
KEZF 160715Z AUTO 21004KT 10SM CLR 26/22 A2983 RMK AO2 T02640218=
KEZF 160735Z AUTO 23003KT 10SM CLR 26/22 A2983 RMK AO2 T02620219=
KEZF 160755Z AUTO 00000KT 10SM CLR 26/22 A2984 RMK AO2 T02620220=
KEZF 160815Z AUTO 00000KT 10SM CLR 26/22 A2985 RMK AO2 T02600220=
KEZF 160835Z AUTO 00000KT 10SM CLR 26/22 A2985 RMK AO2 T02580220=
KEZF 160855Z AUTO 00000KT 10SM CLR 26/22 A2985 RMK AO2 T02590220=
KEZF 160915Z AUTO 00000KT 10SM CLR 26/22 A2986 RMK AO2 T02550223=
KEZF 160935Z AUTO 00000KT 10SM CLR 25/22 A2985 RMK AO2 T02520223=
KEZF 160955Z AUTO 00000KT 10SM CLR 25/23 A2985 RMK AO2 T02530225=
KEZF 161015Z AUTO 00000KT 10SM CLR 25/23 A2985 RMK AO2 T02520225=
KEZF 161035Z AUTO 00000KT 10SM CLR 25/23 A2986 RMK AO2 T02510227=
KEZF 161055Z AUTO 00000KT 10SM CLR 26/23 A2986 RMK AO2 T02550226=
KEZF 161115Z AUTO 00000KT 10SM CLR 26/23 A2987 RMK AO2 T02600225=
KEZF 161135Z AUTO 21003KT 10SM CLR 27/23 A2987 RMK AO2 T02660227=
KEZF 161155Z AUTO 21003KT 10SM CLR 27/23 A2988 RMK AO2 70001 T02700226 10270
 20250=
KEZF 161215Z AUTO 23004KT 10SM CLR 27/23 A2988 RMK AO2 T02740225=
KEZF 161235Z AUTO 22003KT 10SM CLR 28/23 A2988 RMK AO2 T02820226=
KEZF 161255Z AUTO 26003KT 10SM CLR 29/22 A2988 RMK AO2 T02910222=
KEZF 161315Z AUTO 22004KT 10SM CLR 30/22 A2987 RMK AO2 T02970222=
KEZF 161335Z AUTO 20004KT 10SM CLR 31/22 A2987 RMK AO2 T03070221=
KEZF 161355Z AUTO 19004KT 10SM CLR 31/22 A2986 RMK AO2 T03130220=
KEZF 161415Z AUTO 22003KT 10SM CLR 32/22 A2986 RMK AO2 T03190219=
KEZF 161435Z AUTO 23004KT 10SM CLR 33/22 A2986 RMK AO2 T03280218=
KEZF 161455Z AUTO 22005KT 10SM CLR 33/22 A2987 RMK AO2 T03340219=
KEZF 161515Z AUTO 22006KT 10SM CLR 34/22 A2986 RMK AO2 T03380216=
KEZF 161535Z AUTO 22009KT 10SM CLR 34/22 A2986 RMK AO2 T03440220=
KEZF 161555Z AUTO 22007KT 10SM CLR 35/22 A2986 RMK AO2 T03500219=
KEZF 161615Z AUTO 21009KT 10SM CLR 36/22 A2986 RMK AO2 T03560216=
KEZF 161635Z AUTO 22008KT 10SM CLR 36/21 A2986 RMK AO2 T03550209=
KEZF 161655Z AUTO 24011G14KT 10SM CLR 36/20 A2986 RMK AO2 T03560204=
KEZF 161715Z AUTO 20008KT 10SM CLR 36/21 A2984 RMK AO2 T03580205=
KEZF 161735Z AUTO 21008KT 10SM CLR 36/21 A2983 RMK AO2 T03620205=
KEZF 161755Z AUTO 24007G14KT 10SM CLR 36/21 A2982 RMK AO2 T03620206 10365 20270=
KEZF 161815Z AUTO 23009G17KT 10SM CLR 37/20 A2982 RMK AO2 T03670197=
KEZF 161835Z AUTO 20014G18KT 10SM CLR 37/19 A2981 RMK AO2 T03690192=
KEZF 161855Z AUTO 22009KT 200V260 10SM CLR 37/20 A2981 RMK AO2 T03710195=
KEZF 161915Z AUTO 21015G18KT 10SM CLR 37/19 A2980 RMK AO2 T03720193=
KEZF 161935Z AUTO 20012G18KT 10SM CLR 37/19 A2979 RMK AO2 T03730185=
KEZF 161955Z AUTO 20013G18KT 10SM CLR 38/19 A2979 RMK AO2 T03750185=
KEZF 162015Z AUTO 21012KT 10SM CLR 37/18 A2979 RMK AO2 T03740181=
KEZF 162035Z AUTO 20014G18KT 170V230 10SM CLR 37/19 A2978 RMK AO2 T03710186=

Decoded Surface Observations


The weather observed at FREDERICKSB/SHAN, VA (KEZF) at 03:55 PM EDT was:
  The skies were clear.
  Temperature: 97F ( 36C)  Dewpoint:  66F ( 19C)  Relative Humidity:  37%
  Winds from the S  (190 degs) at  7 mph.
  Altimeter:29.86 inches of mercury.
  The prevailing visibility was 10 miles.

The weather observed at FREDERICKSB/SHAN, VA (KEZF) at 04:15 PM EDT was:
  The skies were clear.
  Temperature: 97F ( 36C)  Dewpoint:  64F ( 18C)  Relative Humidity:  35%
  Winds from the SW (210 degs) at  9 mph.
  Altimeter:29.86 inches of mercury.
  The prevailing visibility was 10 miles.

The weather observed at FREDERICKSB/SHAN, VA (KEZF) at 04:35 PM EDT was:
  The skies were clear.
  Temperature: 97F ( 36C)  Dewpoint:  66F ( 19C)  Relative Humidity:  37%
  Winds from the SW (210 degs) at  9 mph.
  Altimeter:29.85 inches of mercury.
  The prevailing visibility was 10 miles.

The weather observed at FREDERICKSB/SHAN, VA (KEZF) at 04:55 PM EDT was:
  The skies were clear.
  Temperature: 97F ( 36C)  Dewpoint:  66F ( 19C)  Relative Humidity:  37%
  Winds from the SSW(200 degs) at  9 mph.
  Altimeter:29.85 inches of mercury.
  The prevailing visibility was 10 miles.

The weather observed at FREDERICKSB/SHAN, VA (KEZF) at 05:15 PM EDT was:
  The skies were clear.
  Temperature: 97F ( 36C)  Dewpoint:  66F ( 19C)  Relative Humidity:  37%
  Winds from the SSW(200 degs) at  8 mph.
  Altimeter:29.84 inches of mercury.
  The prevailing visibility was 10 miles.

The weather observed at FREDERICKSB/SHAN, VA (KEZF) at 05:35 PM EDT was:
  The skies were clear.
  Temperature: 97F ( 36C)  Dewpoint:  66F ( 19C)  Relative Humidity:  37%
  Winds from the SW (220 degs) at  9 mph.
  Altimeter:29.84 inches of mercury.
  The prevailing visibility was 10 miles.

The weather observed at FREDERICKSB/SHAN, VA (KEZF) at 05:55 PM EDT was:
  The skies were clear.
  Temperature: 95F ( 35C)  Dewpoint:  64F ( 18C)  Relative Humidity:  37%
  Winds from the SW (240 degs) at  5 mph.
  Altimeter:29.85 inches of mercury.
  The prevailing visibility was 10 miles.

The weather observed at FREDERICKSB/SHAN, VA (KEZF) at 06:15 PM EDT was:
  The skies were mostly cloudy.
  Temperature: 91F ( 33C)  Dewpoint:  64F ( 18C)  Relative Humidity:  41%
  Winds from the NW (300 degs) at 17 mph.
  Altimeter:29.88 inches of mercury.
  The prevailing visibility was 10 miles.

The weather observed at FREDERICKSB/SHAN, VA (KEZF) at 06:35 PM EDT was:
  The skies were cloudy.
  The weather reported was moderate rain.
  Temperature: 79F ( 26C)  Dewpoint:  72F ( 22C)  Relative Humidity:  79%
  Winds from the S  (190 degs) at  7 mph.
  Altimeter:29.85 inches of mercury.
  The prevailing visibility was 7 miles.
  There has been 0.01 inches of precipitation in the past hour.

The weather observed at FREDERICKSB/SHAN, VA (KEZF) at 06:55 PM EDT was:
  The skies were mostly cloudy.
  Temperature: 79F ( 26C)  Dewpoint:  77F ( 25C)  Relative Humidity:  94%
  Winds from the CLM(CLM degs) at  0 mph.
  Altimeter:29.84 inches of mercury.
  The prevailing visibility was 10 miles.
  There has been 0.01 inches of precipitation in the past hour.

The weather observed at FREDERICKSB/SHAN, VA (KEZF) at 07:15 PM EDT was:
  The skies were clear.
  Temperature: 81F ( 27C)  Dewpoint:  79F ( 26C)  Relative Humidity:  94%
  Winds from the CLM(CLM degs) at  0 mph.
  Altimeter:29.84 inches of mercury.
  The prevailing visibility was 10 miles.

The weather observed at FREDERICKSB/SHAN, VA (KEZF) at 07:35 PM EDT was:
  The skies were clear.
  Temperature: 82F ( 28C)  Dewpoint:  79F ( 26C)  Relative Humidity:  89%
  Winds from the CLM(CLM degs) at  0 mph.
  Altimeter:29.83 inches of mercury.
  The prevailing visibility was 10 miles.

The weather observed at FREDERICKSB/SHAN, VA (KEZF) at 07:55 PM EDT was:
  The skies were clear.
  Temperature: 82F ( 28C)  Dewpoint:  80F ( 27C)  Relative Humidity:  95%
  Winds from the CLM(CLM degs) at  0 mph.
  Altimeter:29.83 inches of mercury.
  The prevailing visibility was 10 miles.
  The maximum temperature in the past 6 hours was  97F.
  There has been 0.01 inches of precipitation in the past 6 hours.

The weather observed at FREDERICKSB/SHAN, VA (KEZF) at 08:15 PM EDT was:
  The skies were clear.
  Temperature: 81F ( 27C)  Dewpoint:  79F ( 26C)  Relative Humidity:  94%
  Winds from the CLM(CLM degs) at  0 mph.
  Altimeter:29.83 inches of mercury.
  The prevailing visibility was 10 miles.

The weather observed at FREDERICKSB/SHAN, VA (KEZF) at 08:35 PM EDT was:
  The skies were clear.
  Temperature: 81F ( 27C)  Dewpoint:  75F ( 24C)  Relative Humidity:  84%
  Winds from the CLM(CLM degs) at  0 mph.
  Altimeter:29.84 inches of mercury.
  The prevailing visibility was 10 miles.

The weather observed at FREDERICKSB/SHAN, VA (KEZF) at 08:55 PM EDT was:
  The skies were clear.
  Temperature: 81F ( 27C)  Dewpoint:  75F ( 24C)  Relative Humidity:  84%
  Winds from the CLM(CLM degs) at  0 mph.
  Altimeter:29.85 inches of mercury.
  The prevailing visibility was 10 miles.

The weather observed at FREDERICKSB/SHAN, VA (KEZF) at 09:15 PM EDT was:
  The skies were clear.
  Temperature: 81F ( 27C)  Dewpoint:  75F ( 24C)  Relative Humidity:  84%
  Winds from the CLM(CLM degs) at  0 mph.
  Altimeter:29.85 inches of mercury.
  The prevailing visibility was 10 miles.

The weather observed at FREDERICKSB/SHAN, VA (KEZF) at 09:35 PM EDT was:
  The skies were clear.
  Temperature: 81F ( 27C)  Dewpoint:  73F ( 23C)  Relative Humidity:  79%
  Winds from the CLM(CLM degs) at  0 mph.
  Altimeter:29.86 inches of mercury.
  The prevailing visibility was 10 miles.

The weather observed at FREDERICKSB/SHAN, VA (KEZF) at 09:55 PM EDT was:
  The skies were clear.
  Temperature: 82F ( 28C)  Dewpoint:  72F ( 22C)  Relative Humidity:  70%
  Winds from the SSW(200 degs) at  6 mph.
  Altimeter:29.86 inches of mercury.
  The prevailing visibility was 10 miles.

The weather observed at FREDERICKSB/SHAN, VA (KEZF) at 10:15 PM EDT was:
  The skies were clear.
  Temperature: 82F ( 28C)  Dewpoint:  72F ( 22C)  Relative Humidity:  70%
  Winds from the CLM(CLM degs) at  0 mph.
  Altimeter:29.86 inches of mercury.
  The prevailing visibility was 10 miles.

The weather observed at FREDERICKSB/SHAN, VA (KEZF) at 10:35 PM EDT was:
  The skies were clear.
  Temperature: 82F ( 28C)  Dewpoint:  72F ( 22C)  Relative Humidity:  70%
  Winds from the CLM(CLM degs) at  0 mph.
  Altimeter:29.86 inches of mercury.
  The prevailing visibility was 10 miles.

The weather observed at FREDERICKSB/SHAN, VA (KEZF) at 10:55 PM EDT was:
  The skies were clear.
  Temperature: 82F ( 28C)  Dewpoint:  72F ( 22C)  Relative Humidity:  70%
  Winds from the SW (210 degs) at  6 mph.
  Altimeter:29.85 inches of mercury.
  The prevailing visibility was 10 miles.

The weather observed at FREDERICKSB/SHAN, VA (KEZF) at 11:15 PM EDT was:
  The skies were clear.
  Temperature: 81F ( 27C)  Dewpoint:  73F ( 23C)  Relative Humidity:  79%
  Winds from the SSW(200 degs) at  7 mph.
  Altimeter:29.85 inches of mercury.
  The prevailing visibility was 10 miles.

The weather observed at FREDERICKSB/SHAN, VA (KEZF) at 11:35 PM EDT was:
  The skies were clear.
  Temperature: 81F ( 27C)  Dewpoint:  72F ( 22C)  Relative Humidity:  74%
  Winds from the CLM(CLM degs) at  0 mph.
  Altimeter:29.84 inches of mercury.
  The prevailing visibility was 10 miles.

The weather observed at FREDERICKSB/SHAN, VA (KEZF) at 11:55 PM EDT was:
  The skies were clear.
  Temperature: 81F ( 27C)  Dewpoint:  72F ( 22C)  Relative Humidity:  74%
  Winds from the CLM(CLM degs) at  0 mph.
  Altimeter:29.84 inches of mercury.
  The prevailing visibility was 10 miles.

The weather observed at FREDERICKSB/SHAN, VA (KEZF) at 12:15 AM EDT was:
  The skies were clear.
  Temperature: 81F ( 27C)  Dewpoint:  72F ( 22C)  Relative Humidity:  74%
  Winds from the SW (210 degs) at  7 mph.
  Altimeter:29.83 inches of mercury.
  The prevailing visibility was 10 miles.

The weather observed at FREDERICKSB/SHAN, VA (KEZF) at 12:35 AM EDT was:
  The skies were clear.
  Temperature: 81F ( 27C)  Dewpoint:  72F ( 22C)  Relative Humidity:  74%
  Winds from the SW (210 degs) at  7 mph.
  Altimeter:29.83 inches of mercury.
  The prevailing visibility was 10 miles.

The weather observed at FREDERICKSB/SHAN, VA (KEZF) at 12:55 AM EDT was:
  The skies were clear.
  Temperature: 81F ( 27C)  Dewpoint:  70F ( 21C)  Relative Humidity:  70%
  Winds from the SW (210 degs) at  8 mph.
  Altimeter:29.83 inches of mercury.
  The prevailing visibility was 10 miles.

The weather observed at FREDERICKSB/SHAN, VA (KEZF) at 01:15 AM EDT was:
  The skies were clear.
  Temperature: 81F ( 27C)  Dewpoint:  72F ( 22C)  Relative Humidity:  74%
  Winds from the SW (220 degs) at  8 mph.
  Altimeter:29.82 inches of mercury.
  The prevailing visibility was 10 miles.

The weather observed at FREDERICKSB/SHAN, VA (KEZF) at 01:35 AM EDT was:
  The skies were clear.
  Temperature: 81F ( 27C)  Dewpoint:  72F ( 22C)  Relative Humidity:  74%
  Winds from the SW (220 degs) at  8 mph.
  Altimeter:29.83 inches of mercury.
  The prevailing visibility was 10 miles.

The weather observed at FREDERICKSB/SHAN, VA (KEZF) at 01:55 AM EDT was:
  The skies were clear.
  Temperature: 81F ( 27C)  Dewpoint:  71F ( 22C)  Relative Humidity:  72%
  Winds from the SW (220 degs) at  8 mph.
  Altimeter:29.82 inches of mercury.
  The prevailing visibility was 10 miles.
  The maximum temperature in the past 6 hours was  83F.
  The minimum temperature in the past 6 hours was  80F.

The weather observed at FREDERICKSB/SHAN, VA (KEZF) at 02:15 AM EDT was:
  The skies were clear.
  Temperature: 81F ( 27C)  Dewpoint:  72F ( 22C)  Relative Humidity:  74%
  Winds from the SW (230 degs) at  6 mph.
  Altimeter:29.82 inches of mercury.
  The prevailing visibility was 10 miles.

The weather observed at FREDERICKSB/SHAN, VA (KEZF) at 02:35 AM EDT was:
  The skies were clear.
  Temperature: 81F ( 27C)  Dewpoint:  72F ( 22C)  Relative Humidity:  74%
  Winds from the SW (220 degs) at  6 mph.
  Altimeter:29.83 inches of mercury.
  The prevailing visibility was 10 miles.

The weather observed at FREDERICKSB/SHAN, VA (KEZF) at 02:55 AM EDT was:
  The skies were clear.
  Temperature: 81F ( 27C)  Dewpoint:  72F ( 22C)  Relative Humidity:  74%
  Winds from the SW (220 degs) at  6 mph.
  Altimeter:29.83 inches of mercury.
  The prevailing visibility was 10 miles.

The weather observed at FREDERICKSB/SHAN, VA (KEZF) at 03:15 AM EDT was:
  The skies were clear.
  Temperature: 79F ( 26C)  Dewpoint:  72F ( 22C)  Relative Humidity:  79%
  Winds from the SW (210 degs) at  5 mph.
  Altimeter:29.83 inches of mercury.
  The prevailing visibility was 10 miles.

The weather observed at FREDERICKSB/SHAN, VA (KEZF) at 03:35 AM EDT was:
  The skies were clear.
  Temperature: 79F ( 26C)  Dewpoint:  72F ( 22C)  Relative Humidity:  79%
  Winds from the SW (230 degs) at  3 mph.
  Altimeter:29.83 inches of mercury.
  The prevailing visibility was 10 miles.

The weather observed at FREDERICKSB/SHAN, VA (KEZF) at 03:55 AM EDT was:
  The skies were clear.
  Temperature: 79F ( 26C)  Dewpoint:  72F ( 22C)  Relative Humidity:  79%
  Winds from the CLM(CLM degs) at  0 mph.
  Altimeter:29.84 inches of mercury.
  The prevailing visibility was 10 miles.

The weather observed at FREDERICKSB/SHAN, VA (KEZF) at 04:15 AM EDT was:
  The skies were clear.
  Temperature: 79F ( 26C)  Dewpoint:  72F ( 22C)  Relative Humidity:  79%
  Winds from the CLM(CLM degs) at  0 mph.
  Altimeter:29.85 inches of mercury.
  The prevailing visibility was 10 miles.

The weather observed at FREDERICKSB/SHAN, VA (KEZF) at 04:35 AM EDT was:
  The skies were clear.
  Temperature: 79F ( 26C)  Dewpoint:  72F ( 22C)  Relative Humidity:  79%
  Winds from the CLM(CLM degs) at  0 mph.
  Altimeter:29.85 inches of mercury.
  The prevailing visibility was 10 miles.

The weather observed at FREDERICKSB/SHAN, VA (KEZF) at 04:55 AM EDT was:
  The skies were clear.
  Temperature: 79F ( 26C)  Dewpoint:  72F ( 22C)  Relative Humidity:  79%
  Winds from the CLM(CLM degs) at  0 mph.
  Altimeter:29.85 inches of mercury.
  The prevailing visibility was 10 miles.

The weather observed at FREDERICKSB/SHAN, VA (KEZF) at 05:15 AM EDT was:
  The skies were clear.
  Temperature: 79F ( 26C)  Dewpoint:  72F ( 22C)  Relative Humidity:  79%
  Winds from the CLM(CLM degs) at  0 mph.
  Altimeter:29.86 inches of mercury.
  The prevailing visibility was 10 miles.

The weather observed at FREDERICKSB/SHAN, VA (KEZF) at 05:35 AM EDT was:
  The skies were clear.
  Temperature: 77F ( 25C)  Dewpoint:  72F ( 22C)  Relative Humidity:  83%
  Winds from the CLM(CLM degs) at  0 mph.
  Altimeter:29.85 inches of mercury.
  The prevailing visibility was 10 miles.

The weather observed at FREDERICKSB/SHAN, VA (KEZF) at 05:55 AM EDT was:
  The skies were clear.
  Temperature: 77F ( 25C)  Dewpoint:  73F ( 23C)  Relative Humidity:  89%
  Winds from the CLM(CLM degs) at  0 mph.
  Altimeter:29.85 inches of mercury.
  The prevailing visibility was 10 miles.

The weather observed at FREDERICKSB/SHAN, VA (KEZF) at 06:15 AM EDT was:
  The skies were clear.
  Temperature: 77F ( 25C)  Dewpoint:  73F ( 23C)  Relative Humidity:  89%
  Winds from the CLM(CLM degs) at  0 mph.
  Altimeter:29.85 inches of mercury.
  The prevailing visibility was 10 miles.

The weather observed at FREDERICKSB/SHAN, VA (KEZF) at 06:35 AM EDT was:
  The skies were clear.
  Temperature: 77F ( 25C)  Dewpoint:  73F ( 23C)  Relative Humidity:  89%
  Winds from the CLM(CLM degs) at  0 mph.
  Altimeter:29.86 inches of mercury.
  The prevailing visibility was 10 miles.

The weather observed at FREDERICKSB/SHAN, VA (KEZF) at 06:55 AM EDT was:
  The skies were clear.
  Temperature: 79F ( 26C)  Dewpoint:  73F ( 23C)  Relative Humidity:  84%
  Winds from the CLM(CLM degs) at  0 mph.
  Altimeter:29.86 inches of mercury.
  The prevailing visibility was 10 miles.

The weather observed at FREDERICKSB/SHAN, VA (KEZF) at 07:15 AM EDT was:
  The skies were clear.
  Temperature: 79F ( 26C)  Dewpoint:  73F ( 23C)  Relative Humidity:  84%
  Winds from the CLM(CLM degs) at  0 mph.
  Altimeter:29.87 inches of mercury.
  The prevailing visibility was 10 miles.

The weather observed at FREDERICKSB/SHAN, VA (KEZF) at 07:35 AM EDT was:
  The skies were clear.
  Temperature: 81F ( 27C)  Dewpoint:  73F ( 23C)  Relative Humidity:  79%
  Winds from the SW (210 degs) at  3 mph.
  Altimeter:29.87 inches of mercury.
  The prevailing visibility was 10 miles.

The weather observed at FREDERICKSB/SHAN, VA (KEZF) at 07:55 AM EDT was:
  The skies were clear.
  Temperature: 81F ( 27C)  Dewpoint:  73F ( 23C)  Relative Humidity:  77%
  Winds from the SW (210 degs) at  3 mph.
  Altimeter:29.88 inches of mercury.
  The prevailing visibility was 10 miles.
  The maximum temperature in the past 6 hours was  81F.
  There has been 0.01 inches of precipitation in the past 24 hours.

The weather observed at FREDERICKSB/SHAN, VA (KEZF) at 08:15 AM EDT was:
  The skies were clear.
  Temperature: 81F ( 27C)  Dewpoint:  73F ( 23C)  Relative Humidity:  79%
  Winds from the SW (230 degs) at  5 mph.
  Altimeter:29.88 inches of mercury.
  The prevailing visibility was 10 miles.

The weather observed at FREDERICKSB/SHAN, VA (KEZF) at 08:35 AM EDT was:
  The skies were clear.
  Temperature: 82F ( 28C)  Dewpoint:  73F ( 23C)  Relative Humidity:  74%
  Winds from the SW (220 degs) at  3 mph.
  Altimeter:29.88 inches of mercury.
  The prevailing visibility was 10 miles.

The weather observed at FREDERICKSB/SHAN, VA (KEZF) at 08:55 AM EDT was:
  The skies were clear.
  Temperature: 84F ( 29C)  Dewpoint:  72F ( 22C)  Relative Humidity:  66%
  Winds from the W  (260 degs) at  3 mph.
  Altimeter:29.88 inches of mercury.
  The prevailing visibility was 10 miles.

The weather observed at FREDERICKSB/SHAN, VA (KEZF) at 09:15 AM EDT was:
  The skies were clear.
  Temperature: 86F ( 30C)  Dewpoint:  72F ( 22C)  Relative Humidity:  62%
  Winds from the SW (220 degs) at  5 mph.
  Altimeter:29.87 inches of mercury.
  The prevailing visibility was 10 miles.

The weather observed at FREDERICKSB/SHAN, VA (KEZF) at 09:35 AM EDT was:
  The skies were clear.
  Temperature: 88F ( 31C)  Dewpoint:  72F ( 22C)  Relative Humidity:  59%
  Winds from the SSW(200 degs) at  5 mph.
  Altimeter:29.87 inches of mercury.
  The prevailing visibility was 10 miles.

The weather observed at FREDERICKSB/SHAN, VA (KEZF) at 09:55 AM EDT was:
  The skies were clear.
  Temperature: 88F ( 31C)  Dewpoint:  72F ( 22C)  Relative Humidity:  59%
  Winds from the S  (190 degs) at  5 mph.
  Altimeter:29.86 inches of mercury.
  The prevailing visibility was 10 miles.

The weather observed at FREDERICKSB/SHAN, VA (KEZF) at 10:15 AM EDT was:
  The skies were clear.
  Temperature: 90F ( 32C)  Dewpoint:  72F ( 22C)  Relative Humidity:  56%
  Winds from the SW (220 degs) at  3 mph.
  Altimeter:29.86 inches of mercury.
  The prevailing visibility was 10 miles.

The weather observed at FREDERICKSB/SHAN, VA (KEZF) at 10:35 AM EDT was:
  The skies were clear.
  Temperature: 91F ( 33C)  Dewpoint:  72F ( 22C)  Relative Humidity:  52%
  Winds from the SW (230 degs) at  5 mph.
  Altimeter:29.86 inches of mercury.
  The prevailing visibility was 10 miles.

The weather observed at FREDERICKSB/SHAN, VA (KEZF) at 10:55 AM EDT was:
  The skies were clear.
  Temperature: 91F ( 33C)  Dewpoint:  72F ( 22C)  Relative Humidity:  52%
  Winds from the SW (220 degs) at  6 mph.
  Altimeter:29.87 inches of mercury.
  The prevailing visibility was 10 miles.

The weather observed at FREDERICKSB/SHAN, VA (KEZF) at 11:15 AM EDT was:
  The skies were clear.
  Temperature: 93F ( 34C)  Dewpoint:  72F ( 22C)  Relative Humidity:  50%
  Winds from the SW (220 degs) at  7 mph.
  Altimeter:29.86 inches of mercury.
  The prevailing visibility was 10 miles.

The weather observed at FREDERICKSB/SHAN, VA (KEZF) at 11:35 AM EDT was:
  The skies were clear.
  Temperature: 93F ( 34C)  Dewpoint:  72F ( 22C)  Relative Humidity:  50%
  Winds from the SW (220 degs) at 10 mph.
  Altimeter:29.86 inches of mercury.
  The prevailing visibility was 10 miles.

The weather observed at FREDERICKSB/SHAN, VA (KEZF) at 11:55 AM EDT was:
  The skies were clear.
  Temperature: 95F ( 35C)  Dewpoint:  72F ( 22C)  Relative Humidity:  47%
  Winds from the SW (220 degs) at  8 mph.
  Altimeter:29.86 inches of mercury.
  The prevailing visibility was 10 miles.

The weather observed at FREDERICKSB/SHAN, VA (KEZF) at 12:15 PM EDT was:
  The skies were clear.
  Temperature: 97F ( 36C)  Dewpoint:  72F ( 22C)  Relative Humidity:  44%
  Winds from the SW (210 degs) at 10 mph.
  Altimeter:29.86 inches of mercury.
  The prevailing visibility was 10 miles.

The weather observed at FREDERICKSB/SHAN, VA (KEZF) at 12:35 PM EDT was:
  The skies were clear.
  Temperature: 97F ( 36C)  Dewpoint:  70F ( 21C)  Relative Humidity:  42%
  Winds from the SW (220 degs) at  9 mph.
  Altimeter:29.86 inches of mercury.
  The prevailing visibility was 10 miles.

The weather observed at FREDERICKSB/SHAN, VA (KEZF) at 12:55 PM EDT was:
  The skies were clear.
  Temperature: 97F ( 36C)  Dewpoint:  68F ( 20C)  Relative Humidity:  39%
  Winds from the SW (240 degs) at 13 mph.
  Altimeter:29.86 inches of mercury.
  The prevailing visibility was 10 miles.

The weather observed at FREDERICKSB/SHAN, VA (KEZF) at 01:15 PM EDT was:
  The skies were clear.
  Temperature: 97F ( 36C)  Dewpoint:  70F ( 21C)  Relative Humidity:  42%
  Winds from the SSW(200 degs) at  9 mph.
  Altimeter:29.84 inches of mercury.
  The prevailing visibility was 10 miles.

The weather observed at FREDERICKSB/SHAN, VA (KEZF) at 01:35 PM EDT was:
  The skies were clear.
  Temperature: 97F ( 36C)  Dewpoint:  70F ( 21C)  Relative Humidity:  42%
  Winds from the SW (210 degs) at  9 mph.
  Altimeter:29.83 inches of mercury.
  The prevailing visibility was 10 miles.

The weather observed at FREDERICKSB/SHAN, VA (KEZF) at 01:55 PM EDT was:
  The skies were clear.
  Temperature: 97F ( 36C)  Dewpoint:  69F ( 21C)  Relative Humidity:  40%
  Winds from the SW (240 degs) at  8 mph.
  Altimeter:29.82 inches of mercury.
  The prevailing visibility was 10 miles.
  The maximum temperature in the past 6 hours was  98F.

The weather observed at FREDERICKSB/SHAN, VA (KEZF) at 02:15 PM EDT was:
  The skies were clear.
  Temperature: 99F ( 37C)  Dewpoint:  68F ( 20C)  Relative Humidity:  37%
  Winds from the SW (230 degs) at 10 mph.
  Altimeter:29.82 inches of mercury.
  The prevailing visibility was 10 miles.

The weather observed at FREDERICKSB/SHAN, VA (KEZF) at 02:35 PM EDT was:
  The skies were clear.
  Temperature: 99F ( 37C)  Dewpoint:  66F ( 19C)  Relative Humidity:  35%
  Winds from the SSW(200 degs) at 16 mph.
  Altimeter:29.81 inches of mercury.
  The prevailing visibility was 10 miles.

The weather observed at FREDERICKSB/SHAN, VA (KEZF) at 02:55 PM EDT was:
  The skies were clear.
  Temperature: 99F ( 37C)  Dewpoint:  68F ( 20C)  Relative Humidity:  37%
  Winds from the SW (220 degs) at 10 mph.
  Altimeter:29.81 inches of mercury.
  The prevailing visibility was 10 miles.

The weather observed at FREDERICKSB/SHAN, VA (KEZF) at 03:15 PM EDT was:
  The skies were clear.
  Temperature: 99F ( 37C)  Dewpoint:  66F ( 19C)  Relative Humidity:  35%
  Winds from the SW (210 degs) at 17 mph.
  Altimeter:29.80 inches of mercury.
  The prevailing visibility was 10 miles.

The weather observed at FREDERICKSB/SHAN, VA (KEZF) at 03:35 PM EDT was:
  The skies were clear.
  Temperature: 99F ( 37C)  Dewpoint:  66F ( 19C)  Relative Humidity:  35%
  Winds from the SSW(200 degs) at 14 mph.
  Altimeter:29.79 inches of mercury.
  The prevailing visibility was 10 miles.

The weather observed at FREDERICKSB/SHAN, VA (KEZF) at 03:55 PM EDT was:
  The skies were clear.
  Temperature:100F ( 38C)  Dewpoint:  66F ( 19C)  Relative Humidity:  33%
  Winds from the SSW(200 degs) at 15 mph.
  Altimeter:29.79 inches of mercury.
  The prevailing visibility was 10 miles.

The weather observed at FREDERICKSB/SHAN, VA (KEZF) at 04:15 PM EDT was:
  The skies were clear.
  Temperature: 99F ( 37C)  Dewpoint:  64F ( 18C)  Relative Humidity:  33%
  Winds from the SW (210 degs) at 14 mph.
  Altimeter:29.79 inches of mercury.
  The prevailing visibility was 10 miles.

The weather observed at FREDERICKSB/SHAN, VA (KEZF) at 04:35 PM EDT was:
  The skies were clear.
  Temperature: 99F ( 37C)  Dewpoint:  66F ( 19C)  Relative Humidity:  35%
  Winds from the SSW(200 degs) at 16 mph.
  Altimeter:29.78 inches of mercury.
  The prevailing visibility was 10 miles.

Short Range Forecast

Sorry no data found for ezf
Make sure ezf is a valid station
You might need to specify a nearby major city
Try Again

Zone Forecast

VAZ055-170000-
Stafford-
Including the city of Falmouth
432 PM EDT Tue Jul 16 2024

...EXCESSIVE HEAT WARNING IN EFFECT UNTIL 8 PM EDT THIS EVENING...
...SEVERE THUNDERSTORM WATCH 548 IN EFFECT UNTIL 10 PM EDT THIS
EVENING...
...HEAT ADVISORY IN EFFECT FROM 11 AM TO 8 PM EDT WEDNESDAY...

.REST OF THIS AFTERNOON...Mostly sunny with scattered showers and
thunderstorms. Some thunderstorms may be severe with damaging
winds. Hot with highs around 101. South winds around 10 mph with
gusts up to 20 mph. Chance of rain 30 percent.
.TONIGHT...Mostly cloudy with scattered showers and thunderstorms
in the evening, then partly cloudy after midnight. Some
thunderstorms may be severe with damaging winds. Lows in the mid
70s. Southwest winds 5 to 10 mph. Chance of rain 30 percent.
.WEDNESDAY...Mostly sunny. Showers and scattered thunderstorms in
the afternoon. Hot with highs in the upper 90s. Southwest winds
5 to 10 mph. Chance of rain 80 percent. Heat index values up to
111.
.WEDNESDAY NIGHT...Showers and numerous thunderstorms in the
evening, then numerous showers and scattered thunderstorms after
midnight. Lows in the lower 70s. Southwest winds 5 to 10 mph.
Chance of rain 80 percent.
.THURSDAY...Mostly cloudy. Scattered showers in the morning, then
scattered showers and thunderstorms in the afternoon. Highs in
the mid 80s. North winds around 5 mph. Chance of rain 50 percent.
.THURSDAY NIGHT...Mostly cloudy. Lows in the mid 60s.
.FRIDAY...Mostly sunny. Highs in the mid 80s.
.FRIDAY NIGHT...Mostly cloudy. Lows in the upper 60s.
.SATURDAY...Partly sunny with a chance of showers and
thunderstorms. Highs in the mid 80s. Chance of rain 30 percent.
.SATURDAY NIGHT...Mostly cloudy. Lows in the upper 60s.
.SUNDAY...Partly sunny. Highs in the upper 80s.
.SUNDAY NIGHT...Mostly cloudy with a chance of showers and
thunderstorms. Lows around 70. Chance of rain 30 percent.
.MONDAY...Partly sunny with a chance of showers and
thunderstorms. Highs in the upper 80s. Chance of rain 50 percent.


State Forecast

Sorry no data found for ezf
Make sure ezf is a valid station
You might need to specify a nearby major city
Try Again

State Forecast Discussion

Sorry no data found for ezf
Make sure ezf is a valid station
You might need to specify a nearby major city
Try Again

GFS Short-Range Model Output Statistics (MOS) Forecast

KEZF   GFS MOS GUIDANCE    7/16/2024  1200 UTC
DT /JULY 16/JULY 17                /JULY 18                /JULY 19
HR   18 21 00 03 06 09 12 15 18 21 00 03 06 09 12 15 18 21 00 06 12
N/X                    76         100          73          87    67
TMP 101101 93 84 80 77 81 93 98 95 87 80 76 74 75 80 84 85 80 71 71
DPT  69 70 73 74 74 73 74 73 72 72 75 76 75 73 72 71 69 68 70 66 64
CLD  SC FW BK BK SC SC SC SC BK OV OV OV OV OV OV OV BK BK BK BK SC
WDR  21 21 20 23 21 21 19 21 22 21 24 21 27 31 35 35 01 04 16 32 01
WSP  10 10 04 02 02 01 02 07 10 10 06 03 04 02 02 04 04 04 02 01 04
P06         3    16     7     0    53    54    15    20    12 16 12
P12                    26          61          64          29    21
Q06         0     0     0     0     2     2     0     0     0  0  0
Q12                     0           2           2           0     0
T06     27/27 24/11  3/ 1  2/ 6 47/34 24/10  2/ 2  5/ 3 12/16  3/ 0
T12           38/36        3/ 8       53/35        7/ 5    16/18
CIG   8  8  8  8  8  8  8  8  8  8  6  6  8  6  7  6  7  8  8  8  8
VIS   7  7  7  7  7  7  7  7  7  7  7  7  6  7  7  7  7  7  7  7  7
OBV   N  N  N  N  N  N  N  N  N  N  N  N  N  N  N  N  N  N  N  N  N

GFS Long-Range Model Output Statistics (MOS) Forecast

KEZF   GFSX MOS GUIDANCE   7/16/2024  1200 UTC
FHR  24  36| 48  60| 72  84| 96 108|120 132|144 156|168 180|192
     WED 17| THU 18| FRI 19| SAT 20| SUN 21| MON 22| TUE 23|WED CLIMO
N/X  76 100| 73  87| 67  88| 69  90| 71  90| 71  90| 71  91| 70 66 88
TMP  81  87| 75  80| 71  81| 74  83| 75  82| 75  81| 75  82| 74
DPT  74  75| 72  70| 64  67| 69  70| 71  73| 72  72| 71  73| 71
CLD  PC  OV| OV  OV| PC  PC| OV  OV| OV  OV| OV  OV| OV  PC| PC
WND   4  10|  6   4|  4   5|  3   6|  3   5|  3   5|  3   6|  6
P12  26  61| 64  29| 21   7| 12  19| 21  31| 29  29| 30  28| 28999999
P24      62|     70|     23|     19|     44|     44|     49|      999
Q12   0   2|  2   0|  0   0|  0   0|  0   0|  0   0|       |
Q24       1|      2|      0|      0|      1|      1|       |
T12  24  47| 24  14| 11   9|  5  17| 14  31| 21  30| 21  28| 16
T24        | 47    | 17    |  9    | 19    | 38    | 38    | 31

NGM Model Output Statistics (MOS) Forecast

Climatological Summary

Sorry no data found for ezf
Make sure ezf is a valid station
You might need to specify a nearby major city
Try Again

Watch and Warning Statment

Sorry no data found for ezf
Make sure ezf is a valid station
You might need to specify a nearby major city
or it could be THERE ARE NO WATCHES OR WARNINGS for ezf
Try Again

Park/Ski Recreation Report/Forecast

Sorry no data found for ezf
Make sure ezf is a valid station
You might need to specify a nearby major city
Try Again